sensor_id;sensor_type;location;lat;lon;timestamp;pressure;altitude;pressure_sealevel;temperature;humidity
63281;BME280;49406;51.044;3.766;2023-01-31T00:00:13;102722.25;;;3.69;100.00
63281;BME280;49406;51.044;3.766;2023-01-31T00:02:47;102727.55;;;3.65;100.00
63281;BME280;49406;51.044;3.766;2023-01-31T00:05:22;102724.56;;;3.65;100.00
63281;BME280;49406;51.044;3.766;2023-01-31T00:07:56;102718.85;;;3.65;100.00
63281;BME280;49406;51.044;3.766;2023-01-31T00:10:33;102712.83;;;3.62;100.00
63281;BME280;49406;51.044;3.766;2023-01-31T00:13:07;102714.13;;;3.61;100.00
63281;BME280;49406;51.044;3.766;2023-01-31T00:15:42;102710.34;;;3.58;100.00
63281;BME280;49406;51.044;3.766;2023-01-31T00:18:17;102711.14;;;3.57;100.00
63281;BME280;49406;51.044;3.766;2023-01-31T00:20:51;102710.88;;;3.53;100.00
63281;BME280;49406;51.044;3.766;2023-01-31T00:23:26;102712.11;;;3.49;100.00
63281;BME280;49406;51.044;3.766;2023-01-31T00:26:09;102718.14;;;3.46;100.00
63281;BME280;49406;51.044;3.766;2023-01-31T00:28:46;102711.09;;;3.41;100.00
63281;BME280;49406;51.044;3.766;2023-01-31T00:31:23;102719.98;;;3.40;100.00
63281;BME280;49406;51.044;3.766;2023-01-31T00:33:59;102719.09;;;3.37;100.00
63281;BME280;49406;51.044;3.766;2023-01-31T00:36:35;102717.34;;;3.34;100.00
63281;BME280;49406;51.044;3.766;2023-01-31T00:39:10;102712.39;;;3.35;100.00
63281;BME280;49406;51.044;3.766;2023-01-31T00:41:44;102706.45;;;3.31;100.00
63281;BME280;49406;51.044;3.766;2023-01-31T00:44:19;102704.05;;;3.26;100.00
63281;BME280;49406;51.044;3.766;2023-01-31T00:46:54;102701.92;;;3.23;100.00
63281;BME280;49406;51.044;3.766;2023-01-31T00:49:28;102699.52;;;3.21;100.00
63281;BME280;49406;51.044;3.766;2023-01-31T00:52:03;102701.02;;;3.18;100.00
63281;BME280;49406;51.044;3.766;2023-01-31T00:54:38;102699.77;;;3.12;100.00
63281;BME280;49406;51.044;3.766;2023-01-31T00:57:13;102695.88;;;3.03;100.00
63281;BME280;49406;51.044;3.766;2023-01-31T00:59:47;102693.02;;;2.99;100.00
63281;BME280;49406;51.044;3.766;2023-01-31T01:02:22;102696.56;;;2.93;100.00
63281;BME280;49406;51.044;3.766;2023-01-31T01:04:57;102696.43;;;2.86;100.00
63281;BME280;49406;51.044;3.766;2023-01-31T01:07:31;102697.09;;;2.81;100.00
63281;BME280;49406;51.044;3.766;2023-01-31T01:10:08;102693.43;;;2.75;100.00
63281;BME280;49406;51.044;3.766;2023-01-31T01:12:42;102693.85;;;2.74;100.00
63281;BME280;49406;51.044;3.766;2023-01-31T01:15:17;102691.04;;;2.73;100.00
63281;BME280;49406;51.044;3.766;2023-01-31T01:17:52;102688.71;;;2.72;100.00
63281;BME280;49406;51.044;3.766;2023-01-31T01:20:28;102691.80;;;2.69;100.00
63281;BME280;49406;51.044;3.766;2023-01-31T01:23:02;102695.17;;;2.68;100.00
63281;BME280;49406;51.044;3.766;2023-01-31T01:25:43;102696.94;;;2.68;100.00
63281;BME280;49406;51.044;3.766;2023-01-31T01:28:18;102690.21;;;2.66;100.00
63281;BME280;49406;51.044;3.766;2023-01-31T01:30:53;102695.26;;;2.61;100.00
63281;BME280;49406;51.044;3.766;2023-01-31T01:33:29;102696.33;;;2.59;100.00
63281;BME280;49406;51.044;3.766;2023-01-31T01:36:05;102693.23;;;2.54;100.00
63281;BME280;49406;51.044;3.766;2023-01-31T01:38:40;102693.61;;;2.53;100.00
63281;BME280;49406;51.044;3.766;2023-01-31T01:41:15;102695.63;;;2.50;100.00
63281;BME280;49406;51.044;3.766;2023-01-31T01:43:52;102697.20;;;2.48;100.00
63281;BME280;49406;51.044;3.766;2023-01-31T01:46:30;102691.92;;;2.46;100.00
63281;BME280;49406;51.044;3.766;2023-01-31T01:49:13;102690.71;;;2.49;100.00
63281;BME280;49406;51.044;3.766;2023-01-31T01:51:51;102687.52;;;2.48;100.00
63281;BME280;49406;51.044;3.766;2023-01-31T01:54:29;102685.00;;;2.49;100.00
63281;BME280;49406;51.044;3.766;2023-01-31T01:57:08;102679.28;;;2.46;100.00
63281;BME280;49406;51.044;3.766;2023-01-31T01:59:48;102684.39;;;2.42;100.00
63281;BME280;49406;51.044;3.766;2023-01-31T02:02:25;102684.67;;;2.39;100.00
63281;BME280;49406;51.044;3.766;2023-01-31T02:05:00;102684.25;;;2.37;100.00
63281;BME280;49406;51.044;3.766;2023-01-31T02:07:36;102678.76;;;2.38;100.00
63281;BME280;49406;51.044;3.766;2023-01-31T02:10:13;102677.64;;;2.39;100.00
63281;BME280;49406;51.044;3.766;2023-01-31T02:12:49;102675.05;;;2.42;100.00
63281;BME280;49406;51.044;3.766;2023-01-31T02:15:24;102665.21;;;2.39;100.00
63281;BME280;49406;51.044;3.766;2023-01-31T02:17:59;102667.35;;;2.40;100.00
63281;BME280;49406;51.044;3.766;2023-01-31T02:20:51;102671.02;;;2.38;100.00
63281;BME280;49406;51.044;3.766;2023-01-31T02:23:48;102673.48;;;2.32;100.00
63281;BME280;49406;51.044;3.766;2023-01-31T02:27:20;102668.67;;;2.25;100.00
63281;BME280;49406;51.044;3.766;2023-01-31T02:33:04;102666.48;;;2.14;100.00
63281;BME280;49406;51.044;3.766;2023-01-31T02:36:03;102675.10;;;2.11;100.00
63281;BME280;49406;51.044;3.766;2023-01-31T02:38:51;102686.46;;;2.10;100.00
63281;BME280;49406;51.044;3.766;2023-01-31T02:41:34;102683.37;;;2.08;100.00
63281;BME280;49406;51.044;3.766;2023-01-31T02:44:15;102681.57;;;2.07;100.00
63281;BME280;49406;51.044;3.766;2023-01-31T02:47:20;102674.52;;;2.08;100.00
63281;BME280;49406;51.044;3.766;2023-01-31T02:50:04;102676.99;;;2.08;100.00
63281;BME280;49406;51.044;3.766;2023-01-31T02:52:47;102676.55;;;2.05;100.00
63281;BME280;49406;51.044;3.766;2023-01-31T02:55:27;102677.98;;;2.07;100.00
63281;BME280;49406;51.044;3.766;2023-01-31T02:58:23;102678.62;;;2.09;100.00
63281;BME280;49406;51.044;3.766;2023-01-31T03:01:02;102676.98;;;2.10;100.00
63281;BME280;49406;51.044;3.766;2023-01-31T03:03:38;102680.27;;;2.11;100.00
63281;BME280;49406;51.044;3.766;2023-01-31T03:06:51;102672.67;;;2.08;100.00
63281;BME280;49406;51.044;3.766;2023-01-31T03:09:37;102666.29;;;2.08;100.00
63281;BME280;49406;51.044;3.766;2023-01-31T03:12:29;102668.65;;;2.08;100.00
63281;BME280;49406;51.044;3.766;2023-01-31T03:18:25;102655.19;;;2.07;100.00
63281;BME280;49406;51.044;3.766;2023-01-31T03:21:04;102650.45;;;2.11;100.00
63281;BME280;49406;51.044;3.766;2023-01-31T03:23:43;102648.96;;;2.12;100.00
63281;BME280;49406;51.044;3.766;2023-01-31T03:26:19;102639.73;;;2.14;100.00
63281;BME280;49406;51.044;3.766;2023-01-31T03:28:55;102638.89;;;2.19;100.00
63281;BME280;49406;51.044;3.766;2023-01-31T03:31:34;102645.15;;;2.22;100.00
63281;BME280;49406;51.044;3.766;2023-01-31T03:34:12;102646.73;;;2.25;100.00
63281;BME280;49406;51.044;3.766;2023-01-31T03:36:52;102646.73;;;2.25;100.00
63281;BME280;49406;51.044;3.766;2023-01-31T03:39:37;102646.47;;;2.23;100.00
63281;BME280;49406;51.044;3.766;2023-01-31T03:42:18;102641.68;;;2.21;100.00
63281;BME280;49406;51.044;3.766;2023-01-31T03:45:00;102643.31;;;2.23;100.00
63281;BME280;49406;51.044;3.766;2023-01-31T03:47:38;102649.70;;;2.25;100.00
63281;BME280;49406;51.044;3.766;2023-01-31T03:50:17;102641.20;;;2.32;100.00
63281;BME280;49406;51.044;3.766;2023-01-31T03:52:57;102630.93;;;2.38;100.00
63281;BME280;49406;51.044;3.766;2023-01-31T03:55:38;102630.27;;;2.40;100.00
63281;BME280;49406;51.044;3.766;2023-01-31T03:58:19;102631.60;;;2.43;100.00
63281;BME280;49406;51.044;3.766;2023-01-31T04:00:58;102629.54;;;2.45;100.00
63281;BME280;49406;51.044;3.766;2023-01-31T04:03:39;102625.90;;;2.48;100.00
63281;BME280;49406;51.044;3.766;2023-01-31T04:06:15;102636.33;;;2.51;100.00
63281;BME280;49406;51.044;3.766;2023-01-31T04:08:50;102634.71;;;2.53;100.00
63281;BME280;49406;51.044;3.766;2023-01-31T04:11:27;102633.27;;;2.57;100.00
63281;BME280;49406;51.044;3.766;2023-01-31T04:14:01;102636.42;;;2.62;100.00
63281;BME280;49406;51.044;3.766;2023-01-31T04:16:36;102637.89;;;2.64;100.00
63281;BME280;49406;51.044;3.766;2023-01-31T04:19:11;102644.27;;;2.68;100.00
63281;BME280;49406;51.044;3.766;2023-01-31T04:21:45;102640.24;;;2.70;100.00
63281;BME280;49406;51.044;3.766;2023-01-31T04:24:21;102629.46;;;2.74;100.00
63281;BME280;49406;51.044;3.766;2023-01-31T04:26:56;102620.29;;;2.77;100.00
63281;BME280;49406;51.044;3.766;2023-01-31T04:29:31;102631.91;;;2.80;100.00
63281;BME280;49406;51.044;3.766;2023-01-31T04:32:04;102633.07;;;2.84;100.00
63281;BME280;49406;51.044;3.766;2023-01-31T04:34:38;102630.97;;;2.86;100.00
63281;BME280;49406;51.044;3.766;2023-01-31T04:37:13;102624.16;;;2.88;100.00
63281;BME280;49406;51.044;3.766;2023-01-31T04:39:48;102619.52;;;2.90;100.00
63281;BME280;49406;51.044;3.766;2023-01-31T04:42:22;102611.51;;;2.92;100.00
63281;BME280;49406;51.044;3.766;2023-01-31T04:44:57;102599.32;;;2.93;100.00
63281;BME280;49406;51.044;3.766;2023-01-31T04:47:32;102601.53;;;2.93;100.00
63281;BME280;49406;51.044;3.766;2023-01-31T04:50:08;102592.08;;;2.91;100.00
63281;BME280;49406;51.044;3.766;2023-01-31T04:52:43;102591.69;;;2.90;100.00
63281;BME280;49406;51.044;3.766;2023-01-31T04:55:19;102583.45;;;2.88;100.00
63281;BME280;49406;51.044;3.766;2023-01-31T04:57:54;102582.93;;;2.91;100.00
63281;BME280;49406;51.044;3.766;2023-01-31T05:00:29;102582.20;;;2.93;100.00
63281;BME280;49406;51.044;3.766;2023-01-31T05:03:04;102580.29;;;2.93;100.00
63281;BME280;49406;51.044;3.766;2023-01-31T05:05:38;102574.64;;;2.91;100.00
63281;BME280;49406;51.044;3.766;2023-01-31T05:08:13;102572.85;;;2.90;100.00
63281;BME280;49406;51.044;3.766;2023-01-31T05:10:48;102574.30;;;2.94;100.00
63281;BME280;49406;51.044;3.766;2023-01-31T05:13:22;102574.16;;;2.97;100.00
63281;BME280;49406;51.044;3.766;2023-01-31T05:15:57;102574.21;;;3.03;100.00
63281;BME280;49406;51.044;3.766;2023-01-31T05:18:32;102577.41;;;3.07;100.00
63281;BME280;49406;51.044;3.766;2023-01-31T05:21:08;102574.21;;;3.13;100.00
63281;BME280;49406;51.044;3.766;2023-01-31T05:23:43;102577.98;;;3.18;100.00
63281;BME280;49406;51.044;3.766;2023-01-31T05:26:18;102576.40;;;3.23;100.00
63281;BME280;49406;51.044;3.766;2023-01-31T05:28:52;102575.91;;;3.31;100.00
63281;BME280;49406;51.044;3.766;2023-01-31T05:31:27;102573.38;;;3.38;100.00
63281;BME280;49406;51.044;3.766;2023-01-31T05:34:02;102570.98;;;3.43;100.00
63281;BME280;49406;51.044;3.766;2023-01-31T05:36:36;102568.52;;;3.50;100.00
63281;BME280;49406;51.044;3.766;2023-01-31T05:39:11;102571.04;;;3.57;100.00
63281;BME280;49406;51.044;3.766;2023-01-31T05:41:46;102577.76;;;3.68;100.00
63281;BME280;49406;51.044;3.766;2023-01-31T05:44:21;102576.17;;;3.73;100.00
63281;BME280;49406;51.044;3.766;2023-01-31T05:46:55;102578.87;;;3.80;100.00
63281;BME280;49406;51.044;3.766;2023-01-31T05:49:30;102577.29;;;3.85;100.00
63281;BME280;49406;51.044;3.766;2023-01-31T05:52:05;102567.46;;;3.88;100.00
63281;BME280;49406;51.044;3.766;2023-01-31T05:54:40;102562.15;;;3.92;100.00
63281;BME280;49406;51.044;3.766;2023-01-31T05:57:15;102559.36;;;3.94;100.00
63281;BME280;49406;51.044;3.766;2023-01-31T05:59:49;102563.67;;;3.97;100.00
63281;BME280;49406;51.044;3.766;2023-01-31T06:02:24;102562.99;;;4.00;100.00
63281;BME280;49406;51.044;3.766;2023-01-31T06:04:58;102556.92;;;4.03;100.00
63281;BME280;49406;51.044;3.766;2023-01-31T06:07:33;102558.63;;;4.05;100.00
63281;BME280;49406;51.044;3.766;2023-01-31T06:10:10;102559.02;;;4.05;100.00
63281;BME280;49406;51.044;3.766;2023-01-31T06:12:45;102552.86;;;4.07;100.00
63281;BME280;49406;51.044;3.766;2023-01-31T06:15:20;102548.59;;;4.10;100.00
63281;BME280;49406;51.044;3.766;2023-01-31T06:17:55;102533.88;;;4.13;100.00
63281;BME280;49406;51.044;3.766;2023-01-31T06:20:30;102531.11;;;4.16;100.00
63281;BME280;49406;51.044;3.766;2023-01-31T06:23:04;102532.25;;;4.18;100.00
63281;BME280;49406;51.044;3.766;2023-01-31T06:25:39;102525.48;;;4.17;100.00
63281;BME280;49406;51.044;3.766;2023-01-31T06:28:14;102523.13;;;4.18;100.00
63281;BME280;49406;51.044;3.766;2023-01-31T06:30:49;102526.79;;;4.21;100.00
63281;BME280;49406;51.044;3.766;2023-01-31T06:33:24;102522.92;;;4.23;100.00
63281;BME280;49406;51.044;3.766;2023-01-31T06:36:01;102522.79;;;4.24;100.00
63281;BME280;49406;51.044;3.766;2023-01-31T06:38:36;102517.70;;;4.23;100.00
63281;BME280;49406;51.044;3.766;2023-01-31T06:41:10;102524.40;;;4.25;100.00
63281;BME280;49406;51.044;3.766;2023-01-31T06:43:46;102525.52;;;4.29;100.00
63281;BME280;49406;51.044;3.766;2023-01-31T06:46:20;102524.39;;;4.34;100.00
63281;BME280;49406;51.044;3.766;2023-01-31T06:48:55;102524.23;;;4.37;100.00
63281;BME280;49406;51.044;3.766;2023-01-31T06:51:30;102519.46;;;4.38;100.00
63281;BME280;49406;51.044;3.766;2023-01-31T06:54:05;102516.13;;;4.40;100.00
63281;BME280;49406;51.044;3.766;2023-01-31T06:56:39;102518.36;;;4.43;100.00
63281;BME280;49406;51.044;3.766;2023-01-31T06:59:14;102513.32;;;4.45;100.00
63281;BME280;49406;51.044;3.766;2023-01-31T07:01:49;102511.30;;;4.46;100.00
63281;BME280;49406;51.044;3.766;2023-01-31T07:04:24;102514.70;;;4.48;100.00
63281;BME280;49406;51.044;3.766;2023-01-31T07:06:58;102516.47;;;4.49;100.00
63281;BME280;49406;51.044;3.766;2023-01-31T07:09:33;102528.67;;;4.50;100.00
63281;BME280;49406;51.044;3.766;2023-01-31T07:12:08;102536.10;;;4.50;100.00
63281;BME280;49406;51.044;3.766;2023-01-31T07:14:42;102535.92;;;4.52;100.00
63281;BME280;49406;51.044;3.766;2023-01-31T07:17:17;102538.23;;;4.54;100.00
63281;BME280;49406;51.044;3.766;2023-01-31T07:19:53;102535.77;;;4.53;100.00
63281;BME280;49406;51.044;3.766;2023-01-31T07:22:28;102541.30;;;4.58;100.00
63281;BME280;49406;51.044;3.766;2023-01-31T07:25:03;102537.52;;;4.62;100.00
63281;BME280;49406;51.044;3.766;2023-01-31T07:27:37;102534.00;;;4.61;100.00
63281;BME280;49406;51.044;3.766;2023-01-31T07:30:11;102540.23;;;4.67;100.00
63281;BME280;49406;51.044;3.766;2023-01-31T07:32:46;102537.79;;;4.70;100.00
63281;BME280;49406;51.044;3.766;2023-01-31T07:35:21;102539.02;;;4.72;100.00
63281;BME280;49406;51.044;3.766;2023-01-31T07:37:56;102531.37;;;4.75;100.00
63281;BME280;49406;51.044;3.766;2023-01-31T07:40:30;102534.76;;;4.77;100.00
63281;BME280;49406;51.044;3.766;2023-01-31T07:43:05;102537.73;;;4.80;100.00
63281;BME280;49406;51.044;3.766;2023-01-31T07:45:40;102542.77;;;4.84;100.00
63281;BME280;49406;51.044;3.766;2023-01-31T07:48:15;102541.61;;;4.87;100.00
63281;BME280;49406;51.044;3.766;2023-01-31T07:50:59;102535.63;;;4.88;100.00
63281;BME280;49406;51.044;3.766;2023-01-31T07:53:37;102536.67;;;4.88;100.00
63281;BME280;49406;51.044;3.766;2023-01-31T07:56:16;102529.77;;;4.89;100.00
63281;BME280;49406;51.044;3.766;2023-01-31T07:58:51;102537.84;;;4.91;100.00
63281;BME280;49406;51.044;3.766;2023-01-31T08:01:27;102535.06;;;4.94;100.00
63281;BME280;49406;51.044;3.766;2023-01-31T08:04:17;102534.98;;;4.98;100.00
63281;BME280;49406;51.044;3.766;2023-01-31T08:06:54;102532.59;;;5.02;100.00
63281;BME280;49406;51.044;3.766;2023-01-31T08:09:29;102528.70;;;5.06;100.00
63281;BME280;49406;51.044;3.766;2023-01-31T08:12:04;102520.20;;;5.12;100.00
63281;BME280;49406;51.044;3.766;2023-01-31T08:14:38;102516.80;;;5.17;100.00
63281;BME280;49406;51.044;3.766;2023-01-31T08:17:13;102516.04;;;5.22;100.00
63281;BME280;49406;51.044;3.766;2023-01-31T08:19:48;102514.78;;;5.27;100.00
63281;BME280;49406;51.044;3.766;2023-01-31T08:22:21;102510.02;;;5.32;100.00
63281;BME280;49406;51.044;3.766;2023-01-31T08:24:55;102513.08;;;5.40;100.00
63281;BME280;49406;51.044;3.766;2023-01-31T08:27:30;102506.70;;;5.44;100.00
63281;BME280;49406;51.044;3.766;2023-01-31T08:30:06;102497.61;;;5.46;100.00
63281;BME280;49406;51.044;3.766;2023-01-31T08:32:41;102501.25;;;5.52;100.00
63281;BME280;49406;51.044;3.766;2023-01-31T08:35:16;102495.39;;;5.56;100.00
63281;BME280;49406;51.044;3.766;2023-01-31T08:37:51;102496.46;;;5.62;100.00
63281;BME280;49406;51.044;3.766;2023-01-31T08:40:25;102493.60;;;5.64;100.00
63281;BME280;49406;51.044;3.766;2023-01-31T08:43:00;102503.17;;;5.65;100.00
63281;BME280;49406;51.044;3.766;2023-01-31T08:45:36;102496.35;;;5.67;100.00
63281;BME280;49406;51.044;3.766;2023-01-31T08:48:11;102494.02;;;5.72;100.00
63281;BME280;49406;51.044;3.766;2023-01-31T08:50:47;102484.97;;;5.78;100.00
63281;BME280;49406;51.044;3.766;2023-01-31T08:53:21;102488.30;;;5.82;100.00
63281;BME280;49406;51.044;3.766;2023-01-31T08:56:00;102472.17;;;5.85;100.00
63281;BME280;49406;51.044;3.766;2023-01-31T08:58:36;102478.44;;;5.91;100.00
63281;BME280;49406;51.044;3.766;2023-01-31T09:01:13;102484.98;;;5.94;100.00
63281;BME280;49406;51.044;3.766;2023-01-31T09:03:48;102486.11;;;5.95;100.00
63281;BME280;49406;51.044;3.766;2023-01-31T09:06:28;102495.73;;;5.97;100.00
63281;BME280;49406;51.044;3.766;2023-01-31T09:09:03;102498.98;;;5.99;100.00
63281;BME280;49406;51.044;3.766;2023-01-31T09:11:38;102495.04;;;6.03;100.00
63281;BME280;49406;51.044;3.766;2023-01-31T09:14:12;102492.52;;;6.08;100.00
63281;BME280;49406;51.044;3.766;2023-01-31T09:16:47;102492.92;;;6.13;100.00
63281;BME280;49406;51.044;3.766;2023-01-31T09:19:22;102497.23;;;6.15;100.00
63281;BME280;49406;51.044;3.766;2023-01-31T09:21:56;102496.62;;;6.17;100.00
63281;BME280;49406;51.044;3.766;2023-01-31T09:24:31;102491.60;;;6.20;100.00
63281;BME280;49406;51.044;3.766;2023-01-31T09:27:06;102486.66;;;6.25;100.00
63281;BME280;49406;51.044;3.766;2023-01-31T09:29:40;102489.21;;;6.28;100.00
63281;BME280;49406;51.044;3.766;2023-01-31T09:32:15;102489.80;;;6.32;100.00
63281;BME280;49406;51.044;3.766;2023-01-31T09:34:50;102486.62;;;6.35;100.00
63281;BME280;49406;51.044;3.766;2023-01-31T09:37:25;102489.83;;;6.37;100.00
63281;BME280;49406;51.044;3.766;2023-01-31T09:39:59;102490.44;;;6.38;100.00
63281;BME280;49406;51.044;3.766;2023-01-31T09:42:37;102477.12;;;6.36;100.00
63281;BME280;49406;51.044;3.766;2023-01-31T09:45:18;102479.34;;;6.42;100.00
63281;BME280;49406;51.044;3.766;2023-01-31T09:47:58;102471.67;;;6.45;100.00
63281;BME280;49406;51.044;3.766;2023-01-31T09:50:38;102466.01;;;6.47;100.00
63281;BME280;49406;51.044;3.766;2023-01-31T09:53:16;102460.34;;;6.51;100.00
63281;BME280;49406;51.044;3.766;2023-01-31T09:55:59;102462.42;;;6.61;100.00
63281;BME280;49406;51.044;3.766;2023-01-31T09:58:45;102465.96;;;6.73;100.00
63281;BME280;49406;51.044;3.766;2023-01-31T10:01:27;102471.23;;;6.88;100.00
63281;BME280;49406;51.044;3.766;2023-01-31T10:04:14;102473.02;;;6.92;100.00
63281;BME280;49406;51.044;3.766;2023-01-31T10:06:57;102462.23;;;6.92;100.00
63281;BME280;49406;51.044;3.766;2023-01-31T10:09:37;102466.73;;;6.92;100.00
63281;BME280;49406;51.044;3.766;2023-01-31T10:12:16;102482.31;;;6.94;100.00
63281;BME280;49406;51.044;3.766;2023-01-31T10:14:54;102480.39;;;7.01;100.00
63281;BME280;49406;51.044;3.766;2023-01-31T10:17:34;102470.50;;;7.12;100.00
63281;BME280;49406;51.044;3.766;2023-01-31T10:20:19;102466.54;;;7.24;100.00
63281;BME280;49406;51.044;3.766;2023-01-31T10:22:58;102466.27;;;7.40;100.00
63281;BME280;49406;51.044;3.766;2023-01-31T10:25:40;102474.02;;;7.54;100.00
63281;BME280;49406;51.044;3.766;2023-01-31T10:28:23;102467.39;;;7.65;100.00
63281;BME280;49406;51.044;3.766;2023-01-31T10:31:04;102460.70;;;7.78;100.00
63281;BME280;49406;51.044;3.766;2023-01-31T10:33:46;102449.89;;;7.93;100.00
63281;BME280;49406;51.044;3.766;2023-01-31T10:36:27;102431.48;;;8.14;100.00
63281;BME280;49406;51.044;3.766;2023-01-31T10:39:05;102411.04;;;8.33;100.00
63281;BME280;49406;51.044;3.766;2023-01-31T10:41:55;102416.62;;;8.49;100.00
63281;BME280;49406;51.044;3.766;2023-01-31T10:44:41;102415.25;;;8.58;100.00
63281;BME280;49406;51.044;3.766;2023-01-31T10:47:17;102432.16;;;8.57;100.00
63281;BME280;49406;51.044;3.766;2023-01-31T10:49:52;102426.35;;;8.53;100.00
63281;BME280;49406;51.044;3.766;2023-01-31T10:52:39;102432.29;;;8.49;100.00
63281;BME280;49406;51.044;3.766;2023-01-31T10:55:39;102422.77;;;8.50;100.00
63281;BME280;49406;51.044;3.766;2023-01-31T10:58:18;102417.63;;;8.48;100.00
63281;BME280;49406;51.044;3.766;2023-01-31T11:00:54;102419.11;;;8.51;100.00
63281;BME280;49406;51.044;3.766;2023-01-31T11:03:29;102406.95;;;8.51;100.00
63281;BME280;49406;51.044;3.766;2023-01-31T11:06:04;102407.65;;;8.55;100.00
63281;BME280;49406;51.044;3.766;2023-01-31T11:08:44;102419.50;;;8.59;100.00
63281;BME280;49406;51.044;3.766;2023-01-31T11:11:22;102421.43;;;8.64;100.00
63281;BME280;49406;51.044;3.766;2023-01-31T11:13:59;102423.91;;;8.73;100.00
63281;BME280;49406;51.044;3.766;2023-01-31T11:16:36;102420.34;;;8.85;100.00
63281;BME280;49406;51.044;3.766;2023-01-31T11:19:14;102411.30;;;8.94;100.00
63281;BME280;49406;51.044;3.766;2023-01-31T11:21:52;102390.48;;;9.01;100.00
63281;BME280;49406;51.044;3.766;2023-01-31T11:24:31;102401.71;;;9.16;100.00
63281;BME280;49406;51.044;3.766;2023-01-31T11:27:10;102390.55;;;9.30;100.00
63281;BME280;49406;51.044;3.766;2023-01-31T11:29:49;102396.89;;;9.41;100.00
63281;BME280;49406;51.044;3.766;2023-01-31T11:32:30;102393.05;;;9.50;100.00
63281;BME280;49406;51.044;3.766;2023-01-31T11:35:23;102385.92;;;9.56;100.00
63281;BME280;49406;51.044;3.766;2023-01-31T11:38:01;102378.95;;;9.60;100.00
63281;BME280;49406;51.044;3.766;2023-01-31T11:40:37;102371.66;;;9.66;100.00
63281;BME280;49406;51.044;3.766;2023-01-31T11:43:25;102372.73;;;9.67;100.00
63281;BME280;49406;51.044;3.766;2023-01-31T11:46:01;102361.83;;;9.65;100.00
63281;BME280;49406;51.044;3.766;2023-01-31T11:48:40;102382.47;;;9.66;100.00
63281;BME280;49406;51.044;3.766;2023-01-31T11:51:26;102382.17;;;9.68;100.00
63281;BME280;49406;51.044;3.766;2023-01-31T11:54:05;102377.09;;;9.67;100.00
63281;BME280;49406;51.044;3.766;2023-01-31T11:56:40;102366.46;;;9.63;100.00
63281;BME280;49406;51.044;3.766;2023-01-31T11:59:18;102365.26;;;9.63;100.00
63281;BME280;49406;51.044;3.766;2023-01-31T12:01:56;102359.52;;;9.59;100.00
63281;BME280;49406;51.044;3.766;2023-01-31T12:04:38;102357.79;;;9.55;100.00
63281;BME280;49406;51.044;3.766;2023-01-31T12:07:23;102356.23;;;9.50;100.00
63281;BME280;49406;51.044;3.766;2023-01-31T12:09:59;102359.70;;;9.50;100.00
63281;BME280;49406;51.044;3.766;2023-01-31T12:12:36;102353.70;;;9.48;100.00
63281;BME280;49406;51.044;3.766;2023-01-31T12:15:15;102362.79;;;9.48;100.00
63281;BME280;49406;51.044;3.766;2023-01-31T12:17:50;102364.92;;;9.49;100.00
63281;BME280;49406;51.044;3.766;2023-01-31T12:20:35;102365.18;;;9.52;100.00
63281;BME280;49406;51.044;3.766;2023-01-31T12:23:21;102372.73;;;9.53;100.00
63281;BME280;49406;51.044;3.766;2023-01-31T12:26:06;102370.51;;;9.54;100.00
63281;BME280;49406;51.044;3.766;2023-01-31T12:28:56;102374.81;;;9.53;100.00
63281;BME280;49406;51.044;3.766;2023-01-31T12:31:57;102368.02;;;9.48;100.00
63281;BME280;49406;51.044;3.766;2023-01-31T12:35:07;102376.02;;;9.52;100.00
63281;BME280;49406;51.044;3.766;2023-01-31T12:37:55;102373.13;;;9.49;100.00
63281;BME280;49406;51.044;3.766;2023-01-31T12:40:39;102370.58;;;9.46;100.00
63281;BME280;49406;51.044;3.766;2023-01-31T12:43:29;102370.88;;;9.41;100.00
63281;BME280;49406;51.044;3.766;2023-01-31T12:46:13;102374.79;;;9.33;100.00
63281;BME280;49406;51.044;3.766;2023-01-31T12:49:02;102370.48;;;9.25;100.00
63281;BME280;49406;51.044;3.766;2023-01-31T12:51:43;102364.48;;;9.10;100.00
63281;BME280;49406;51.044;3.766;2023-01-31T12:54:36;102372.91;;;8.97;100.00
63281;BME280;49406;51.044;3.766;2023-01-31T12:57:26;102373.63;;;8.81;100.00
63281;BME280;49406;51.044;3.766;2023-01-31T13:00:13;102365.79;;;8.68;100.00
63281;BME280;49406;51.044;3.766;2023-01-31T13:03:02;102364.65;;;8.61;100.00
63281;BME280;49406;51.044;3.766;2023-01-31T13:05:45;102363.31;;;8.54;100.00
63281;BME280;49406;51.044;3.766;2023-01-31T13:08:23;102364.77;;;8.51;100.00
63281;BME280;49406;51.044;3.766;2023-01-31T13:11:04;102361.33;;;8.48;100.00
63281;BME280;49406;51.044;3.766;2023-01-31T13:13:45;102352.50;;;8.45;100.00
63281;BME280;49406;51.044;3.766;2023-01-31T13:16:23;102353.41;;;8.46;100.00
63281;BME280;49406;51.044;3.766;2023-01-31T13:19:02;102349.54;;;8.50;100.00
63281;BME280;49406;51.044;3.766;2023-01-31T13:21:42;102350.25;;;8.55;100.00
63281;BME280;49406;51.044;3.766;2023-01-31T13:24:20;102346.71;;;8.57;100.00
63281;BME280;49406;51.044;3.766;2023-01-31T13:26:59;102345.24;;;8.60;100.00
63281;BME280;49406;51.044;3.766;2023-01-31T13:29:41;102349.42;;;8.64;100.00
63281;BME280;49406;51.044;3.766;2023-01-31T13:32:22;102354.82;;;8.68;100.00
63281;BME280;49406;51.044;3.766;2023-01-31T13:35:01;102356.70;;;8.76;100.00
63281;BME280;49406;51.044;3.766;2023-01-31T13:37:39;102349.58;;;8.81;100.00
63281;BME280;49406;51.044;3.766;2023-01-31T13:40:20;102348.64;;;8.84;100.00
63281;BME280;49406;51.044;3.766;2023-01-31T13:42:55;102339.44;;;8.85;100.00
63281;BME280;49406;51.044;3.766;2023-01-31T13:45:35;102339.91;;;8.92;100.00
63281;BME280;49406;51.044;3.766;2023-01-31T13:48:21;102324.08;;;8.98;100.00
63281;BME280;49406;51.044;3.766;2023-01-31T13:51:00;102319.27;;;9.05;100.00
63281;BME280;49406;51.044;3.766;2023-01-31T13:53:40;102324.80;;;9.12;100.00